KLRO/LRO METAR and TAF weather

Enter ICAO airport designator
Station Type Date Time Source
KLRO METAR 2020/07/09 23:35 UTC NOAA

KLRO 092335Z AUTO VRB04KT 9SM BKN070 28/26 A2983 RMK AO2


Station Type Date Time Source
KLRO Decoded METAR 2020/07/09 23:35 UTC NOAA

Station name not available
Jul 09, 2020 - 07:35 PM EDT / 2020.07.09 2335 UTC
Wind: Variable at 5 MPH (4 KT):0
Visibility: 9 mile(s):0
Sky conditions: mostly cloudy
Temperature: 82 F (28 C)
Dew Point: 78 F (26 C)
Relative Humidity: 88%
Pressure (altimeter): 29.83 in. Hg (1010 hPa)
ob: KLRO 092335Z AUTO VRB04KT 9SM BKN070 28/26 A2983 RMK AO2
cycle: 23

Station Type Date Time Source
KLRO TAF UTC NOAA

Error!

Example: see airport list